createdAt,value
2018-02-15T00:00:46.444Z,6.07
2018-02-15T00:03:12.864Z,6.25
2018-02-15T00:05:39.276Z,6.23
2018-02-15T00:08:05.633Z,6.31
2018-02-15T00:10:39.121Z,6.16
2018-02-15T00:13:05.497Z,6.15
2018-02-15T00:15:31.862Z,6.19
2018-02-15T00:17:58.287Z,6.19
2018-02-15T00:20:24.632Z,5.99
2018-02-15T00:22:51.045Z,5.99
2018-02-15T00:25:17.424Z,6.06
2018-02-15T00:27:43.796Z,6.15
2018-02-15T00:30:10.182Z,6.05
2018-02-15T00:32:36.580Z,6.11
2018-02-15T00:35:02.970Z,6.06
2018-02-15T00:37:29.321Z,6.10
2018-02-15T00:39:55.684Z,6.12
2018-02-15T00:42:22.070Z,6.11
2018-02-15T00:44:48.448Z,5.91
2018-02-15T00:47:14.870Z,6.04
2018-02-15T00:49:41.257Z,6.11
2018-02-15T00:52:07.641Z,6.20
2018-02-15T00:54:33.980Z,6.03
2018-02-15T00:57:00.341Z,6.03
2018-02-15T00:59:26.773Z,5.97
2018-02-15T01:01:53.122Z,5.90
2018-02-15T01:04:19.516Z,5.94
2018-02-15T01:06:45.954Z,5.94
2018-02-15T01:09:12.500Z,6.07
2018-02-15T01:11:38.885Z,6.09
2018-02-15T01:14:05.412Z,6.11
2018-02-15T01:16:31.816Z,6.12
2018-02-15T01:18:58.209Z,5.95
2018-02-15T01:21:24.559Z,6.12
2018-02-15T01:23:50.944Z,6.20
2018-02-15T01:26:17.389Z,6.09
2018-02-15T01:28:43.752Z,6.12
2018-02-15T01:31:10.100Z,6.05
2018-02-15T01:33:36.483Z,6.03
2018-02-15T01:36:03.026Z,6.06
2018-02-15T01:38:29.396Z,5.97
2018-02-15T01:40:55.740Z,6.05
2018-02-15T01:43:22.108Z,6.06
2018-02-15T01:45:48.491Z,5.89
2018-02-15T01:48:14.937Z,5.76
2018-02-15T01:50:41.305Z,5.75
2018-02-15T01:53:07.633Z,5.88
2018-02-15T01:55:34.038Z,5.93
2018-02-15T01:58:00.412Z,5.80
2018-02-15T02:00:26.866Z,5.69
2018-02-15T02:02:53.312Z,5.66
2018-02-15T02:05:19.701Z,5.52
2018-02-15T02:07:46.132Z,5.57
2018-02-15T02:10:12.523Z,5.52
2018-02-15T02:12:38.869Z,5.40
2018-02-15T02:15:05.224Z,5.40
2018-02-15T02:17:31.605Z,5.51
2018-02-15T02:19:58.288Z,5.53
2018-02-15T02:22:24.628Z,5.40
2018-02-15T02:24:51.020Z,5.50
2018-02-15T02:27:17.361Z,5.59
2018-02-15T02:29:43.720Z,5.68
2018-02-15T02:32:10.068Z,5.56
2018-02-15T02:34:36.409Z,5.22
2018-02-15T02:37:02.800Z,4.88
2018-02-15T02:39:29.147Z,5.10
2018-02-15T02:41:55.495Z,4.90
2018-02-15T02:44:21.902Z,4.78
2018-02-15T02:46:48.269Z,5.03
2018-02-15T02:49:14.621Z,5.12
2018-02-15T02:51:40.973Z,5.07
2018-02-15T02:54:07.924Z,4.94
2018-02-15T02:56:34.383Z,4.96
2018-02-15T02:59:00.785Z,4.99
2018-02-15T03:01:27.144Z,4.96
2018-02-15T03:03:53.481Z,4.93
2018-02-15T03:06:19.853Z,5.01
2018-02-15T03:08:46.273Z,5.10
2018-02-15T03:11:12.621Z,5.20
2018-02-15T03:13:38.961Z,4.92
2018-02-15T03:16:05.311Z,4.84
2018-02-15T03:18:31.746Z,4.94
2018-02-15T03:20:58.100Z,4.72
2018-02-15T03:23:24.451Z,4.40
2018-02-15T03:25:50.824Z,4.34
2018-02-15T03:28:17.197Z,4.43
2018-02-15T03:30:43.525Z,4.41
2018-02-15T03:33:09.920Z,4.54
2018-02-15T03:35:36.265Z,4.51
2018-02-15T03:38:02.640Z,4.45
2018-02-15T03:40:29.013Z,4.49
2018-02-15T03:42:55.381Z,4.47
2018-02-15T03:45:21.708Z,4.62
2018-02-15T03:47:48.125Z,4.54
2018-02-15T03:50:14.606Z,4.41
2018-02-15T03:52:41.037Z,4.40
2018-02-15T03:55:07.445Z,4.57
2018-02-15T03:57:33.992Z,4.51
2018-02-15T04:00:00.337Z,4.53
2018-02-15T04:02:26.744Z,4.59
2018-02-15T04:04:53.209Z,4.45
2018-02-15T04:07:19.670Z,4.28
2018-02-15T04:09:46.174Z,4.16
2018-02-15T04:12:12.857Z,4.43
2018-02-15T04:14:39.429Z,4.35
2018-02-15T04:17:05.985Z,4.38
2018-02-15T04:19:32.366Z,4.37
2018-02-15T04:21:58.742Z,4.50
2018-02-15T04:24:25.189Z,4.44
2018-02-15T04:26:51.593Z,4.41
2018-02-15T04:29:17.945Z,4.37
2018-02-15T04:31:44.457Z,4.26
2018-02-15T04:34:10.850Z,4.27
2018-02-15T04:36:37.183Z,4.36
2018-02-15T04:39:03.672Z,4.22
2018-02-15T04:41:30.089Z,3.91
2018-02-15T04:43:56.504Z,4.18
2018-02-15T04:46:22.913Z,4.08
2018-02-15T04:48:49.243Z,4.14
2018-02-15T04:51:15.625Z,4.22
2018-02-15T04:53:42.065Z,4.30
2018-02-15T04:56:08.466Z,4.26
2018-02-15T04:58:34.849Z,4.37
2018-02-15T05:01:01.209Z,4.30
2018-02-15T05:03:27.596Z,4.27
2018-02-15T05:05:54.033Z,4.35
2018-02-15T05:08:20.508Z,4.43
2018-02-15T05:10:46.841Z,4.25
2018-02-15T05:13:13.176Z,4.25
2018-02-15T05:15:39.604Z,4.37
2018-02-15T05:18:06.075Z,4.12
2018-02-15T05:20:32.428Z,4.18
2018-02-15T05:22:58.916Z,4.25
2018-02-15T05:25:25.268Z,4.36
2018-02-15T05:27:51.604Z,4.36
2018-02-15T05:30:17.958Z,4.40
2018-02-15T05:32:44.415Z,4.38
2018-02-15T05:35:10.845Z,4.49
2018-02-15T05:37:37.189Z,4.33
2018-02-15T05:40:03.567Z,4.24
2018-02-15T05:42:30.128Z,4.39
2018-02-15T05:44:56.502Z,4.42
2018-02-15T05:47:22.845Z,4.48
2018-02-15T05:49:49.252Z,4.35
2018-02-15T05:52:15.586Z,4.36
2018-02-15T05:54:41.918Z,4.19
2018-02-15T05:57:08.293Z,4.43
2018-02-15T05:59:34.721Z,4.19
2018-02-15T06:02:01.226Z,4.26
2018-02-15T06:04:27.569Z,4.39
2018-02-15T06:06:54.004Z,4.33
2018-02-15T06:09:20.480Z,4.55
2018-02-15T06:11:47.042Z,4.61
2018-02-15T06:14:13.481Z,4.61
2018-02-15T06:16:39.869Z,4.72
2018-02-15T06:19:06.625Z,4.57
2018-02-15T06:21:32.981Z,4.63
2018-02-15T06:23:59.477Z,4.41
2018-02-15T06:26:29.744Z,4.35
2018-02-15T06:28:56.092Z,4.22
2018-02-15T06:31:22.783Z,4.40
2018-02-15T06:33:49.152Z,4.57
2018-02-15T06:36:15.768Z,4.50
2018-02-15T06:38:42.195Z,4.48
2018-02-15T06:41:08.525Z,4.41
2018-02-15T06:43:34.881Z,4.53
2018-02-15T06:46:01.326Z,4.56
2018-02-15T06:48:27.828Z,4.48
2018-02-15T06:50:54.307Z,4.41
2018-02-15T06:53:20.695Z,4.60
2018-02-15T06:55:47.040Z,4.67
2018-02-15T06:58:13.591Z,4.95
2018-02-15T07:00:40.037Z,4.89
2018-02-15T07:03:06.400Z,4.93
2018-02-15T07:05:32.757Z,5.04
2018-02-15T07:07:59.090Z,4.87
2018-02-15T07:10:25.873Z,5.02
2018-02-15T07:12:52.261Z,4.96
2018-02-15T07:15:18.801Z,4.63
2018-02-15T07:17:45.196Z,4.67
2018-02-15T07:20:11.742Z,4.25
2018-02-15T07:22:38.093Z,4.33
2018-02-15T07:25:04.826Z,4.16
2018-02-15T07:27:31.202Z,4.31
2018-02-15T07:29:57.529Z,4.12
2018-02-15T07:32:23.933Z,4.47
2018-02-15T07:34:50.264Z,4.55
2018-02-15T07:37:16.593Z,4.47
2018-02-15T07:39:43.001Z,4.52
2018-02-15T07:42:09.346Z,4.49
2018-02-15T07:44:35.721Z,4.21
2018-02-15T07:47:02.269Z,4.23
2018-02-15T07:49:28.684Z,4.35
2018-02-15T07:51:55.105Z,4.54
2018-02-15T07:54:21.586Z,4.25
2018-02-15T07:56:47.971Z,4.40
2018-02-15T07:59:14.356Z,4.41
2018-02-15T08:01:40.905Z,4.62
2018-02-15T08:04:07.276Z,4.57
2018-02-15T08:06:33.688Z,4.75
2018-02-15T08:09:00.048Z,4.82
2018-02-15T08:11:26.377Z,4.60
2018-02-15T08:13:52.982Z,4.62
2018-02-15T08:16:19.358Z,4.83
2018-02-15T08:18:45.764Z,4.95
2018-02-15T08:21:12.177Z,5.10
2018-02-15T08:23:38.571Z,5.13
2018-02-15T08:26:05.032Z,5.25
2018-02-15T08:28:31.582Z,5.11
2018-02-15T08:30:57.917Z,5.25
2018-02-15T08:33:24.270Z,5.59
2018-02-15T08:35:50.711Z,5.71
2018-02-15T08:38:17.049Z,5.74
2018-02-15T08:40:43.413Z,5.98
2018-02-15T08:43:09.789Z,6.06
2018-02-15T08:45:36.153Z,5.92
2018-02-15T08:48:02.582Z,5.91
2018-02-15T08:50:28.948Z,6.07
2018-02-15T08:52:55.382Z,6.28
2018-02-15T08:55:21.732Z,6.12
2018-02-15T08:57:48.090Z,6.20
2018-02-15T09:00:14.456Z,6.34
2018-02-15T09:02:40.812Z,6.34
2018-02-15T09:05:07.192Z,6.54
2018-02-15T09:07:33.818Z,6.47
2018-02-15T09:10:00.208Z,6.50
2018-02-15T09:12:26.637Z,6.58
2018-02-15T09:14:53.034Z,6.30
2018-02-15T09:17:19.458Z,6.30
2018-02-15T09:19:45.822Z,6.43
2018-02-15T09:22:12.209Z,6.57
2018-02-15T09:24:38.609Z,6.72
2018-02-15T09:27:04.956Z,6.48
2018-02-15T09:29:31.382Z,6.58
2018-02-15T09:31:57.723Z,6.68
2018-02-15T09:34:24.130Z,6.50
2018-02-15T09:36:50.482Z,6.62
2018-02-15T09:39:17.243Z,6.47
2018-02-15T09:41:43.769Z,6.30
2018-02-15T09:44:10.118Z,6.11
2018-02-15T09:46:36.565Z,6.38
2018-02-15T09:49:03.131Z,6.71
2018-02-15T09:51:29.500Z,6.58
2018-02-15T09:53:56.201Z,6.33
2018-02-15T09:56:22.585Z,6.64
2018-02-15T09:58:49.005Z,6.82
2018-02-15T10:01:15.428Z,7.05
2018-02-15T10:03:41.758Z,7.18
2018-02-15T10:06:08.653Z,7.10
2018-02-15T10:08:35.015Z,7.21
2018-02-15T10:11:01.366Z,7.31
2018-02-15T10:13:27.739Z,7.25
2018-02-15T10:15:54.114Z,7.40
2018-02-15T10:18:20.456Z,7.55
2018-02-15T10:20:46.853Z,7.34
2018-02-15T10:23:13.202Z,7.27
2018-02-15T10:25:39.632Z,7.58
2018-02-15T10:28:06.051Z,7.92
2018-02-15T10:30:32.401Z,7.77
2018-02-15T10:32:58.741Z,7.84
2018-02-15T10:35:25.382Z,7.87
2018-02-15T10:37:51.712Z,7.98
2018-02-15T10:40:18.085Z,7.93
2018-02-15T10:42:44.509Z,7.91
2018-02-15T10:45:10.853Z,7.70
2018-02-15T10:47:37.228Z,7.71
2018-02-15T10:50:03.605Z,7.77
2018-02-15T10:52:30.222Z,7.75
2018-02-15T10:54:56.562Z,7.94
2018-02-15T10:57:23.101Z,8.06
2018-02-15T10:59:49.448Z,8.26
2018-02-15T11:02:21.897Z,8.32
2018-02-15T11:04:54.376Z,8.18
2018-02-15T11:07:20.726Z,8.25
2018-02-15T11:09:47.085Z,8.38
2018-02-15T11:12:13.445Z,8.49
2018-02-15T11:14:39.878Z,8.21
2018-02-15T11:17:06.272Z,8.29
2018-02-15T11:19:32.641Z,8.28
2018-02-15T11:21:59.204Z,8.18
2018-02-15T11:24:25.588Z,8.33
2018-02-15T11:26:52.193Z,7.83
2018-02-15T11:29:18.801Z,7.86
2018-02-15T11:31:45.176Z,7.99
2018-02-15T11:34:11.546Z,8.24
2018-02-15T11:36:38.009Z,8.41
2018-02-15T11:39:04.473Z,8.58
2018-02-15T11:41:30.822Z,8.15
2018-02-15T11:43:57.299Z,8.22
2018-02-15T11:46:23.831Z,8.16
2018-02-15T11:48:50.245Z,7.92
2018-02-15T11:51:16.837Z,8.16
2018-02-15T11:53:43.505Z,8.26
2018-02-15T11:56:09.933Z,8.41
2018-02-15T11:58:36.390Z,8.30
2018-02-15T12:01:02.785Z,8.41
2018-02-15T12:03:29.245Z,8.10
2018-02-15T12:05:55.749Z,8.29
2018-02-15T12:08:22.133Z,7.99
2018-02-15T12:10:48.485Z,7.96
2018-02-15T12:13:14.825Z,8.07
2018-02-15T12:15:41.166Z,8.04
2018-02-15T12:18:07.657Z,8.06
2018-02-15T12:20:34.016Z,8.08
2018-02-15T12:23:00.369Z,7.94
2018-02-15T12:25:26.722Z,8.21
2018-02-15T12:27:53.137Z,8.17
2018-02-15T12:30:19.501Z,8.15
2018-02-15T12:32:45.839Z,8.13
2018-02-15T12:35:12.192Z,8.15
2018-02-15T12:37:38.785Z,8.23
2018-02-15T12:40:05.289Z,8.37
2018-02-15T12:42:31.652Z,8.54
2018-02-15T12:44:58.068Z,8.45
2018-02-15T12:47:24.523Z,8.66
2018-02-15T12:49:50.937Z,8.45
2018-02-15T12:52:17.458Z,8.54
2018-02-15T12:54:43.866Z,8.63
2018-02-15T12:57:10.250Z,8.63
2018-02-15T12:59:36.867Z,8.66
2018-02-15T13:02:03.681Z,8.65
2018-02-15T13:04:30.289Z,8.59
2018-02-15T13:06:56.625Z,8.61
2018-02-15T13:09:22.985Z,8.58
2018-02-15T13:11:49.433Z,8.65
2018-02-15T13:14:15.847Z,8.69
2018-02-15T13:16:54.421Z,8.58
2018-02-15T13:19:33.913Z,8.61
2018-02-15T13:22:00.309Z,8.77
2018-02-15T13:24:26.714Z,8.75
2018-02-15T13:26:53.147Z,8.58
2018-02-15T13:29:19.618Z,8.56
2018-02-15T13:31:46.021Z,8.30
2018-02-15T13:34:12.437Z,8.55
2018-02-15T13:36:38.961Z,8.42
2018-02-15T13:39:05.575Z,8.33
2018-02-15T13:41:33.058Z,8.55
2018-02-15T13:43:59.624Z,8.48
2018-02-15T13:46:26.038Z,8.38
2018-02-15T13:48:52.432Z,8.39
2018-02-15T13:51:18.899Z,8.59
2018-02-15T13:53:45.335Z,8.68
2018-02-15T13:56:11.741Z,8.76
2018-02-15T13:58:38.282Z,8.78
2018-02-15T14:01:04.765Z,8.83
2018-02-15T14:03:32.093Z,8.84
2018-02-15T14:05:58.566Z,8.78
2018-02-15T14:08:25.081Z,8.79
2018-02-15T14:10:51.508Z,8.78
2018-02-15T14:13:18.012Z,8.82
2018-02-15T14:15:44.346Z,8.81
2018-02-15T14:18:10.756Z,8.83
2018-02-15T14:20:37.363Z,8.79
2018-02-15T14:23:03.830Z,8.76
2018-02-15T14:25:30.245Z,8.79
2018-02-15T14:27:56.784Z,8.67
2018-02-15T14:30:23.285Z,8.66
2018-02-15T14:32:51.345Z,8.74
2018-02-15T14:35:18.836Z,8.46
2018-02-15T14:37:45.352Z,8.33
2018-02-15T14:40:11.749Z,8.54
2018-02-15T14:42:38.302Z,8.30
2018-02-15T14:45:04.848Z,8.51
2018-02-15T14:47:31.300Z,8.55
2018-02-15T14:49:57.664Z,8.58
2018-02-15T14:52:24.046Z,8.65
2018-02-15T14:54:50.566Z,8.61
2018-02-15T14:57:17.249Z,8.62
2018-02-15T14:59:43.682Z,8.63
2018-02-15T15:02:10.021Z,8.35
2018-02-15T15:04:36.368Z,8.39
2018-02-15T15:07:02.865Z,8.55
2018-02-15T15:09:29.221Z,8.48
2018-02-15T15:11:55.861Z,8.60
2018-02-15T15:14:22.264Z,8.57
2018-02-15T15:16:48.680Z,8.63
2018-02-15T15:19:15.057Z,8.51
2018-02-15T15:21:41.457Z,8.58
2018-02-15T15:24:07.898Z,8.63
2018-02-15T15:26:34.353Z,8.56
2018-02-15T15:29:00.886Z,8.52
2018-02-15T15:31:27.236Z,8.36
2018-02-15T15:33:54.245Z,8.47
2018-02-15T15:36:20.683Z,8.54
2018-02-15T15:38:47.083Z,8.47
2018-02-15T15:41:13.545Z,8.51
2018-02-15T15:43:46.894Z,8.45
2018-02-15T15:46:13.273Z,8.48
2018-02-15T15:48:39.637Z,8.47
2018-02-15T15:51:06.035Z,8.47
2018-02-15T15:53:32.458Z,8.44
2018-02-15T15:55:58.794Z,8.46
2018-02-15T15:58:25.272Z,8.46
2018-02-15T16:00:51.605Z,8.42
2018-02-15T16:03:18.026Z,8.41
2018-02-15T16:05:44.517Z,8.45
2018-02-15T16:08:10.913Z,8.46
2018-02-15T16:10:37.321Z,8.45
2018-02-15T16:13:03.753Z,8.39
2018-02-15T16:15:35.744Z,8.41
2018-02-15T16:18:02.221Z,8.35
2018-02-15T16:20:28.600Z,8.36
2018-02-15T16:22:54.930Z,8.36
2018-02-15T16:25:21.294Z,8.35
2018-02-15T16:27:47.677Z,8.38
2018-02-15T16:30:14.205Z,8.35
2018-02-15T16:32:40.605Z,8.26
2018-02-15T16:35:06.950Z,8.16
2018-02-15T16:37:33.379Z,8.27
2018-02-15T16:39:59.769Z,8.30
2018-02-15T16:42:26.101Z,8.20
2018-02-15T16:44:52.544Z,8.16
2018-02-15T16:47:18.883Z,8.02
2018-02-15T16:49:45.270Z,7.61
2018-02-15T16:52:11.741Z,7.68
2018-02-15T16:54:38.082Z,7.79
2018-02-15T16:57:04.448Z,7.80
2018-02-15T16:59:30.898Z,7.83
2018-02-15T17:01:57.249Z,7.78
2018-02-15T17:04:32.675Z,7.72
2018-02-15T17:06:59.148Z,7.92
2018-02-15T17:09:25.642Z,7.71
2018-02-15T17:11:52.048Z,7.78
2018-02-15T17:14:18.448Z,7.79
2018-02-15T17:16:44.847Z,7.56
2018-02-15T17:19:11.318Z,7.56
2018-02-15T17:21:37.737Z,7.28
2018-02-15T17:24:04.093Z,7.23
2018-02-15T17:26:30.499Z,7.08
2018-02-15T17:28:56.941Z,7.38
2018-02-15T17:31:23.395Z,7.45
2018-02-15T17:33:49.831Z,7.26
2018-02-15T17:36:16.375Z,7.23
2018-02-15T17:38:42.847Z,7.46
2018-02-15T17:41:09.279Z,7.43
2018-02-15T17:43:35.760Z,7.34
2018-02-15T17:46:02.199Z,7.35
2018-02-15T17:48:28.596Z,7.42
2018-02-15T17:50:55.006Z,7.53
2018-02-15T17:53:21.485Z,7.60
2018-02-15T17:55:47.997Z,7.57
2018-02-15T17:58:15.774Z,7.44
2018-02-15T18:00:42.519Z,7.53
2018-02-15T18:03:09.119Z,7.40
2018-02-15T18:05:36.141Z,7.03
2018-02-15T18:08:03.372Z,7.07
2018-02-15T18:10:31.693Z,7.24
2018-02-15T18:12:58.132Z,7.24
2018-02-15T18:15:24.525Z,7.13
2018-02-15T18:17:51.324Z,7.25
2018-02-15T18:20:17.805Z,7.16
2018-02-15T18:22:44.310Z,7.11
2018-02-15T18:25:11.496Z,7.00
2018-02-15T18:27:39.353Z,6.96
2018-02-15T18:30:06.521Z,7.16
2018-02-15T18:32:32.889Z,7.06
2018-02-15T18:34:59.375Z,7.20
2018-02-15T18:37:25.840Z,7.13
2018-02-15T18:39:52.280Z,7.15
2018-02-15T18:42:18.808Z,7.19
2018-02-15T18:44:45.238Z,7.24
2018-02-15T18:47:11.629Z,7.33
2018-02-15T18:49:38.290Z,7.24
2018-02-15T18:52:04.772Z,7.28
2018-02-15T18:54:31.206Z,7.18
2018-02-15T18:56:57.625Z,7.14
2018-02-15T18:59:24.150Z,7.03
2018-02-15T19:01:50.838Z,7.27
2018-02-15T19:04:19.184Z,7.17
2018-02-15T19:06:45.853Z,6.80
2018-02-15T19:09:13.034Z,6.66
2018-02-15T19:11:39.421Z,6.80
2018-02-15T19:14:05.806Z,6.93
2018-02-15T19:16:33.021Z,6.89
2018-02-15T19:18:59.427Z,6.88
2018-02-15T19:21:25.873Z,6.80
2018-02-15T19:23:52.559Z,7.00
2018-02-15T19:26:19.113Z,6.62
2018-02-15T19:28:45.513Z,6.95
2018-02-15T19:31:11.933Z,7.03
2018-02-15T19:33:38.329Z,7.13
2018-02-15T19:36:04.697Z,7.21
2018-02-15T19:38:31.128Z,7.27
2018-02-15T19:40:57.610Z,7.05
2018-02-15T19:43:23.973Z,7.08
2018-02-15T19:45:50.419Z,6.86
2018-02-15T19:48:16.831Z,7.01
2018-02-15T19:50:43.263Z,7.20
2018-02-15T19:53:09.666Z,7.12
2018-02-15T19:55:36.056Z,7.16
2018-02-15T19:58:04.028Z,7.16
2018-02-15T20:00:30.447Z,7.18
2018-02-15T20:02:57.098Z,7.13
2018-02-15T20:05:23.485Z,7.28
2018-02-15T20:07:49.850Z,7.23
2018-02-15T20:10:16.417Z,7.25
2018-02-15T20:12:42.814Z,7.24
2018-02-15T20:15:09.199Z,7.18
2018-02-15T20:17:35.621Z,7.23
2018-02-15T20:20:08.068Z,7.20
2018-02-15T20:22:35.128Z,7.19
2018-02-15T20:25:01.927Z,7.31
2018-02-15T20:27:34.457Z,7.15
2018-02-15T20:30:00.913Z,7.32
2018-02-15T20:32:27.403Z,6.93
2018-02-15T20:34:53.838Z,7.04
2018-02-15T20:37:20.323Z,6.91
2018-02-15T20:39:52.815Z,7.04
2018-02-15T20:42:19.153Z,7.00
2018-02-15T20:44:45.714Z,7.06
2018-02-15T20:47:12.189Z,7.11
2018-02-15T20:49:44.591Z,7.06
2018-02-15T20:52:17.269Z,7.14
2018-02-15T20:54:49.805Z,6.92
2018-02-15T20:57:16.204Z,6.90
2018-02-15T20:59:42.697Z,7.09
2018-02-15T21:02:09.229Z,7.00
2018-02-15T21:04:35.672Z,6.93
2018-02-15T21:07:03.207Z,6.90
2018-02-15T21:09:29.597Z,6.90
2018-02-15T21:11:55.994Z,7.07
2018-02-15T21:14:22.381Z,6.97
2018-02-15T21:16:48.827Z,6.99
2018-02-15T21:19:15.211Z,7.05
2018-02-15T21:21:41.555Z,7.05
2018-02-15T21:24:08.014Z,7.04
2018-02-15T21:26:34.508Z,6.97
2018-02-15T21:29:01.394Z,6.99
2018-02-15T21:31:27.812Z,6.78
2018-02-15T21:33:54.913Z,6.87
2018-02-15T21:36:21.306Z,6.89
2018-02-15T21:38:47.757Z,6.94
2018-02-15T21:41:14.325Z,6.88
2018-02-15T21:43:40.756Z,6.92
2018-02-15T21:46:07.113Z,6.84
2018-02-15T21:48:33.550Z,6.90
2018-02-15T21:50:59.978Z,6.89
2018-02-15T21:53:26.355Z,6.86
2018-02-15T21:55:52.795Z,6.62
2018-02-15T21:58:19.247Z,6.58
2018-02-15T22:00:45.612Z,6.74
2018-02-15T22:03:12.081Z,6.71
2018-02-15T22:05:38.521Z,6.69
2018-02-15T22:08:04.972Z,6.50
2018-02-15T22:10:31.435Z,6.77
2018-02-15T22:12:57.811Z,6.79
2018-02-15T22:15:24.234Z,6.86
2018-02-15T22:17:50.654Z,6.93
2018-02-15T22:20:17.038Z,6.89
2018-02-15T22:22:43.433Z,6.91
2018-02-15T22:25:09.936Z,6.91
2018-02-15T22:27:36.449Z,6.87
2018-02-15T22:30:02.926Z,6.82
2018-02-15T22:32:29.357Z,6.63
2018-02-15T22:34:55.709Z,6.55
2018-02-15T22:37:22.078Z,6.62
2018-02-15T22:39:48.455Z,6.75
2018-02-15T22:42:14.921Z,6.67
2018-02-15T22:44:41.381Z,6.70
2018-02-15T22:47:07.785Z,6.60
2018-02-15T22:49:34.162Z,6.43
2018-02-15T22:52:00.554Z,6.48
2018-02-15T22:54:27.005Z,6.75
2018-02-15T22:56:53.363Z,6.72
2018-02-15T22:59:19.777Z,6.51
2018-02-15T23:01:46.224Z,6.27
2018-02-15T23:04:12.649Z,6.44
2018-02-15T23:06:39.015Z,6.67
2018-02-15T23:09:05.401Z,6.76
2018-02-15T23:11:31.797Z,6.37
2018-02-15T23:13:58.179Z,6.44
2018-02-15T23:16:24.781Z,6.55
2018-02-15T23:18:51.189Z,6.57
2018-02-15T23:21:17.537Z,6.60
2018-02-15T23:23:43.948Z,6.71
2018-02-15T23:26:10.273Z,6.69
2018-02-15T23:28:36.605Z,6.48
2018-02-15T23:31:02.993Z,6.61
2018-02-15T23:33:29.453Z,6.64
2018-02-15T23:35:55.917Z,6.76
2018-02-15T23:38:22.277Z,6.76
2018-02-15T23:40:48.668Z,6.68
2018-02-15T23:43:15.034Z,6.68
2018-02-15T23:45:41.353Z,6.65
2018-02-15T23:48:07.782Z,6.59
2018-02-15T23:50:34.201Z,6.51
2018-02-15T23:53:00.541Z,6.56
2018-02-15T23:55:26.917Z,6.52
2018-02-15T23:57:53.318Z,6.63
